createdAt,value
2018-06-02T00:00:12.790Z,15.70
2018-06-02T00:02:40.293Z,15.70
2018-06-02T00:05:07.809Z,15.60
2018-06-02T00:07:35.309Z,15.60
2018-06-02T00:10:02.830Z,15.50
2018-06-02T00:12:30.328Z,15.30
2018-06-02T00:14:57.841Z,15.20
2018-06-02T00:17:25.336Z,15.20
2018-06-02T00:19:52.853Z,15.20
2018-06-02T00:22:20.352Z,15.20
2018-06-02T00:24:47.865Z,15.20
2018-06-02T00:27:16.128Z,15.30
2018-06-02T00:29:44.414Z,15.30
2018-06-02T00:32:12.696Z,15.30
2018-06-02T00:34:40.193Z,15.20
2018-06-02T00:37:07.710Z,15.30
2018-06-02T00:39:35.968Z,15.30
2018-06-02T00:42:04.253Z,15.30
2018-06-02T00:44:32.516Z,15.30
2018-06-02T00:47:00.029Z,15.30
2018-06-02T00:49:27.529Z,15.30
2018-06-02T00:51:55.049Z,15.30
2018-06-02T00:54:34.285Z,15.20
2018-06-02T00:57:01.797Z,15.20
2018-06-02T00:59:30.060Z,15.20
2018-06-02T01:01:58.350Z,15.20
2018-06-02T01:04:26.619Z,15.10
2018-06-02T01:06:54.901Z,15.10
2018-06-02T01:09:23.165Z,15.10
2018-06-02T01:11:51.449Z,15.10
2018-06-02T01:14:18.949Z,15.10
2018-06-02T01:16:46.476Z,15.10
2018-06-02T01:19:13.974Z,15.10
2018-06-02T01:21:41.485Z,15.10
2018-06-02T01:24:09.749Z,15.10
2018-06-02T01:26:38.029Z,15.10
2018-06-02T01:29:06.294Z,15.00
2018-06-02T01:31:33.816Z,15.00
2018-06-02T01:34:02.077Z,14.90
2018-06-02T01:36:29.597Z,14.80
2018-06-02T01:38:57.871Z,14.80
2018-06-02T01:41:26.153Z,14.70
2018-06-02T01:43:54.425Z,14.60
2018-06-02T01:46:22.701Z,14.60
2018-06-02T01:48:50.968Z,14.60
2018-06-02T01:51:18.481Z,14.50
2018-06-02T01:53:45.980Z,14.50
2018-06-02T01:56:13.496Z,14.50
2018-06-02T01:58:41.001Z,14.50
2018-06-02T02:01:09.285Z,14.50
2018-06-02T02:03:37.563Z,14.50
2018-06-02T02:06:05.845Z,14.50
2018-06-02T02:08:34.105Z,14.30
2018-06-02T02:11:01.624Z,14.30
2018-06-02T02:13:29.129Z,14.30
2018-06-02T02:15:57.417Z,14.10
2018-06-02T02:18:25.681Z,14.00
2018-06-02T02:20:53.970Z,14.00
2018-06-02T02:23:22.228Z,13.90
2018-06-02T02:25:50.513Z,13.90
2018-06-02T02:28:18.776Z,13.80
2018-06-02T02:30:46.289Z,13.80
2018-06-02T02:33:13.798Z,13.80
2018-06-02T02:35:42.087Z,13.90
2018-06-02T02:38:10.367Z,14.00
2018-06-02T02:40:38.637Z,14.00
2018-06-02T02:43:06.186Z,14.00
2018-06-02T02:45:33.665Z,14.00
2018-06-02T02:48:01.185Z,14.00
2018-06-02T02:50:28.685Z,14.00
2018-06-02T02:52:56.202Z,13.90
2018-06-02T02:55:23.706Z,13.90
2018-06-02T02:57:51.227Z,13.80
2018-06-02T03:00:18.733Z,13.70
2018-06-02T03:02:46.248Z,13.70
2018-06-02T03:05:14.522Z,13.80
2018-06-02T03:07:42.809Z,13.90
2018-06-02T03:10:11.090Z,13.90
2018-06-02T03:12:39.372Z,13.90
2018-06-02T03:15:07.645Z,13.80
2018-06-02T03:17:35.927Z,13.80
2018-06-02T03:20:03.446Z,13.80
2018-06-02T03:22:31.000Z,13.80
2018-06-02T03:24:58.492Z,13.80
2018-06-02T03:27:26.014Z,13.90
2018-06-02T03:29:53.522Z,13.90
2018-06-02T03:32:21.037Z,13.80
2018-06-02T03:34:48.533Z,13.80
2018-06-02T03:37:16.045Z,13.80
2018-06-02T03:39:43.544Z,13.80
2018-06-02T03:42:11.822Z,13.80
2018-06-02T03:44:39.330Z,13.80
2018-06-02T03:47:06.849Z,13.80
2018-06-02T03:49:34.347Z,13.80
2018-06-02T03:52:01.857Z,13.80
2018-06-02T03:54:29.357Z,13.90
2018-06-02T03:56:56.881Z,13.90
2018-06-02T03:59:24.381Z,13.90
2018-06-02T04:01:51.897Z,13.90
2018-06-02T04:04:19.405Z,14.00
2018-06-02T04:06:46.916Z,13.90
2018-06-02T04:09:14.421Z,14.00
2018-06-02T04:11:41.951Z,14.10
2018-06-02T04:14:09.452Z,14.50
2018-06-02T04:16:36.965Z,15.20
2018-06-02T04:19:04.464Z,15.50
2018-06-02T04:21:31.981Z,15.80
2018-06-02T04:23:59.481Z,16.20
2018-06-02T04:26:26.997Z,16.70
2018-06-02T04:28:54.493Z,16.90
2018-06-02T04:31:22.017Z,16.70
2018-06-02T04:33:49.513Z,16.40
2018-06-02T04:36:17.017Z,16.30
2018-06-02T04:38:44.532Z,16.20
2018-06-02T04:41:12.029Z,16.30
2018-06-02T04:43:39.549Z,16.20
2018-06-02T04:46:07.053Z,16.10
2018-06-02T04:48:34.568Z,16.00
2018-06-02T04:51:02.066Z,15.90
2018-06-02T04:53:29.588Z,15.90
2018-06-02T04:55:57.857Z,15.80
2018-06-02T04:58:25.369Z,15.80
2018-06-02T05:00:52.865Z,15.90
2018-06-02T05:03:20.711Z,15.80
2018-06-02T05:05:48.222Z,15.80
2018-06-02T05:08:16.506Z,15.90
2018-06-02T05:10:44.007Z,15.90
2018-06-02T05:13:11.524Z,16.00
2018-06-02T05:15:39.029Z,16.20
2018-06-02T05:18:06.544Z,16.70
2018-06-02T05:20:34.054Z,17.20
2018-06-02T05:23:01.571Z,17.40
2018-06-02T05:25:29.081Z,17.30
2018-06-02T05:27:57.376Z,17.20
2018-06-02T05:30:25.645Z,17.20
2018-06-02T05:32:53.928Z,17.20
2018-06-02T05:35:22.215Z,17.30
2018-06-02T05:37:49.731Z,17.30
2018-06-02T05:40:17.232Z,17.40
2018-06-02T05:42:44.744Z,17.40
2018-06-02T05:45:12.254Z,17.70
2018-06-02T05:47:39.769Z,17.70
2018-06-02T05:50:07.270Z,17.70
2018-06-02T05:52:34.794Z,17.80
2018-06-02T05:55:02.300Z,17.90
2018-06-02T05:57:29.818Z,18.00
2018-06-02T05:59:58.165Z,18.10
2018-06-02T06:02:26.385Z,18.10
2018-06-02T06:04:53.896Z,18.10
2018-06-02T06:07:21.419Z,18.10
2018-06-02T06:09:48.917Z,18.30
2018-06-02T06:12:16.438Z,18.30
2018-06-02T06:14:43.936Z,18.40
2018-06-02T06:17:11.457Z,18.60
2018-06-02T06:19:38.986Z,18.80
2018-06-02T06:22:07.267Z,19.40
2018-06-02T06:24:34.760Z,19.40
2018-06-02T06:27:02.278Z,19.40
2018-06-02T06:29:30.548Z,19.80
2018-06-02T06:31:58.817Z,20.00
2018-06-02T06:34:26.340Z,20.00
2018-06-02T06:36:53.845Z,20.30
2018-06-02T06:39:22.125Z,21.00
2018-06-02T06:41:50.384Z,20.90
2018-06-02T06:44:17.910Z,20.90
2018-06-02T06:46:45.410Z,20.90
2018-06-02T06:49:13.693Z,20.10
2018-06-02T06:51:41.960Z,20.30
2018-06-02T06:54:10.245Z,20.40
2018-06-02T06:56:38.513Z,20.80
2018-06-02T06:59:06.792Z,21.30
2018-06-02T07:01:35.065Z,21.50
2018-06-02T07:04:03.353Z,21.50
2018-06-02T07:06:31.617Z,21.40
2018-06-02T07:08:59.946Z,21.30
2018-06-02T07:11:27.421Z,21.30
2018-06-02T07:13:54.941Z,21.10
2018-06-02T07:16:22.441Z,21.10
2018-06-02T07:18:49.958Z,21.30
2018-06-02T07:21:17.460Z,21.60
2018-06-02T07:23:44.988Z,21.70
2018-06-02T07:26:12.497Z,21.90
2018-06-02T07:28:40.784Z,21.50
2018-06-02T07:31:09.057Z,21.00
2018-06-02T07:33:37.337Z,20.70
2018-06-02T07:36:05.628Z,20.30
2018-06-02T07:38:33.133Z,20.30
2018-06-02T07:41:00.637Z,20.00
2018-06-02T07:43:28.152Z,19.90
2018-06-02T07:45:55.659Z,19.70
2018-06-02T07:48:23.177Z,19.80
2018-06-02T07:50:50.676Z,19.90
2018-06-02T07:53:18.197Z,20.20
2018-06-02T07:55:45.700Z,20.70
2018-06-02T07:58:13.222Z,21.80
2018-06-02T08:00:41.520Z,22.90
2018-06-02T08:03:09.793Z,22.50
2018-06-02T08:05:38.057Z,22.10
2018-06-02T08:08:06.351Z,21.70
2018-06-02T08:10:33.863Z,21.70
2018-06-02T08:13:01.377Z,21.40
2018-06-02T08:15:28.877Z,21.20
2018-06-02T08:17:56.403Z,20.90
2018-06-02T08:20:23.901Z,21.00
2018-06-02T08:22:51.424Z,20.90
2018-06-02T08:25:18.926Z,21.00
2018-06-02T08:27:46.433Z,21.10
2018-06-02T08:30:13.949Z,21.00
2018-06-02T08:32:42.217Z,21.40
2018-06-02T08:35:09.733Z,21.30
2018-06-02T08:37:37.237Z,21.90
2018-06-02T08:40:04.757Z,22.20
2018-06-02T08:42:32.266Z,22.40
2018-06-02T08:45:00.553Z,22.30
2018-06-02T08:47:28.056Z,22.30
2018-06-02T08:49:55.569Z,22.60
2018-06-02T08:52:23.833Z,22.60
2018-06-02T08:54:51.354Z,22.60
2018-06-02T08:57:18.856Z,23.00
2018-06-02T08:59:47.133Z,22.00
2018-06-02T09:02:15.392Z,21.90
2018-06-02T09:04:43.677Z,21.60
2018-06-02T09:07:11.941Z,21.60
2018-06-02T09:09:39.461Z,21.60
2018-06-02T09:12:06.958Z,21.40
2018-06-02T09:14:35.261Z,21.10
2018-06-02T09:17:02.757Z,21.10
2018-06-02T09:19:30.277Z,21.00
2018-06-02T09:21:57.776Z,20.90
2018-06-02T09:24:25.293Z,20.80
2018-06-02T09:26:52.793Z,20.60
2018-06-02T09:29:20.312Z,20.50
2018-06-02T09:31:47.809Z,20.50
2018-06-02T09:34:15.329Z,20.30
2018-06-02T09:36:42.835Z,20.50
2018-06-02T09:39:10.353Z,21.00
2018-06-02T09:41:37.857Z,21.60
2018-06-02T09:44:05.373Z,22.30
2018-06-02T09:46:32.869Z,22.70
2018-06-02T09:49:00.380Z,22.80
2018-06-02T09:51:27.888Z,22.90
2018-06-02T09:53:55.413Z,23.50
2018-06-02T09:56:22.917Z,24.10
2018-06-02T09:58:50.442Z,24.30
2018-06-02T10:01:17.944Z,24.50
2018-06-02T10:03:46.233Z,23.10
2018-06-02T10:06:14.501Z,23.10
2018-06-02T10:08:42.792Z,23.60
2018-06-02T10:11:10.317Z,23.60
2018-06-02T10:13:37.826Z,23.80
2018-06-02T10:16:05.344Z,23.90
2018-06-02T10:18:33.637Z,23.10
2018-06-02T10:21:01.175Z,23.10
2018-06-02T10:23:28.685Z,23.00
2018-06-02T10:25:56.205Z,22.90
2018-06-02T10:28:24.473Z,23.70
2018-06-02T10:30:52.767Z,23.40
2018-06-02T10:33:21.772Z,23.10
2018-06-02T10:35:49.288Z,23.10
2018-06-02T10:38:16.802Z,23.00
2018-06-02T10:40:44.325Z,23.50
2018-06-02T10:43:12.597Z,24.00
2018-06-02T10:45:40.884Z,23.80
2018-06-02T10:48:09.162Z,23.50
2018-06-02T10:50:37.453Z,23.10
2018-06-02T10:53:04.957Z,23.10
2018-06-02T10:55:32.483Z,23.10
2018-06-02T10:57:59.989Z,22.70
2018-06-02T11:00:27.508Z,22.60
2018-06-02T11:02:55.017Z,22.50
2018-06-02T11:05:23.306Z,22.20
2018-06-02T11:07:51.577Z,22.20
2018-06-02T11:10:19.866Z,22.50
2018-06-02T11:12:47.373Z,22.50
2018-06-02T11:15:14.900Z,23.10
2018-06-02T11:17:42.411Z,23.90
2018-06-02T11:20:09.942Z,23.60
2018-06-02T11:22:37.453Z,23.00
2018-06-02T11:25:04.972Z,22.70
2018-06-02T11:27:32.475Z,22.60
2018-06-02T11:29:59.998Z,22.80
2018-06-02T11:32:27.506Z,23.40
2018-06-02T11:34:55.025Z,23.50
2018-06-02T11:37:23.297Z,23.40
2018-06-02T11:39:50.821Z,23.30
2018-06-02T11:42:18.325Z,23.20
2018-06-02T11:44:46.618Z,23.10
2018-06-02T11:47:14.127Z,23.10
2018-06-02T11:49:41.642Z,22.90
2018-06-02T11:52:09.151Z,22.70
2018-06-02T11:54:36.674Z,22.80
2018-06-02T11:57:04.176Z,23.40
2018-06-02T11:59:31.695Z,24.00
2018-06-02T12:01:59.197Z,24.30
2018-06-02T12:04:26.727Z,24.00
2018-06-02T12:06:54.282Z,23.70
2018-06-02T12:09:21.761Z,23.60
2018-06-02T12:11:49.280Z,23.80
2018-06-02T12:14:16.782Z,24.40
2018-06-02T12:16:44.305Z,24.50
2018-06-02T12:19:11.809Z,24.40
2018-06-02T12:21:40.105Z,24.30
2018-06-02T12:24:07.613Z,24.20
2018-06-02T12:26:35.137Z,23.60
2018-06-02T12:29:02.641Z,24.50
2018-06-02T12:31:30.160Z,24.60
2018-06-02T12:33:57.661Z,23.90
2018-06-02T12:36:25.181Z,23.50
2018-06-02T12:38:52.691Z,23.40
2018-06-02T12:41:20.983Z,23.40
2018-06-02T12:43:49.257Z,23.80
2018-06-02T12:46:17.540Z,24.40
2018-06-02T12:48:45.052Z,24.30
2018-06-02T12:51:12.577Z,24.40
2018-06-02T12:53:40.089Z,23.90
2018-06-02T12:56:07.612Z,24.00
2018-06-02T12:58:35.117Z,23.90
2018-06-02T13:01:03.401Z,23.00
2018-06-02T13:03:31.672Z,22.80
2018-06-02T13:05:59.957Z,23.10
2018-06-02T13:08:28.225Z,23.50
2018-06-02T13:10:56.517Z,24.00
2018-06-02T13:13:24.021Z,24.00
2018-06-02T13:15:51.537Z,24.30
2018-06-02T13:18:19.045Z,24.50
2018-06-02T13:20:46.563Z,24.30
2018-06-02T13:23:14.111Z,24.20
2018-06-02T13:25:42.373Z,23.70
2018-06-02T13:28:10.641Z,23.50
2018-06-02T13:30:38.925Z,23.70
2018-06-02T13:33:07.197Z,24.00
2018-06-02T13:35:35.481Z,24.40
2018-06-02T13:38:02.993Z,24.30
2018-06-02T13:40:30.519Z,24.20
2018-06-02T13:42:58.070Z,24.10
2018-06-02T13:45:26.334Z,23.80
2018-06-02T13:47:53.854Z,23.80
2018-06-02T13:50:21.378Z,23.30
2018-06-02T13:52:48.881Z,23.10
2018-06-02T13:55:16.414Z,23.00
2018-06-02T13:57:43.912Z,22.90
2018-06-02T14:00:12.201Z,22.90
2018-06-02T14:02:40.474Z,23.00
2018-06-02T14:05:08.765Z,22.90
2018-06-02T14:07:36.274Z,22.80
2018-06-02T14:10:03.774Z,22.90
2018-06-02T14:12:31.360Z,22.90
2018-06-02T14:14:59.593Z,23.90
2018-06-02T14:17:27.885Z,24.30
2018-06-02T14:19:55.393Z,24.30
2018-06-02T14:22:22.909Z,24.40
2018-06-02T14:24:50.413Z,24.60
2018-06-02T14:27:17.933Z,24.60
2018-06-02T14:29:45.438Z,24.10
2018-06-02T14:32:12.966Z,24.20
2018-06-02T14:34:40.473Z,23.80
2018-06-02T14:37:08.762Z,23.40
2018-06-02T14:39:37.033Z,23.20
2018-06-02T14:42:05.327Z,23.10
2018-06-02T14:44:32.829Z,23.00
2018-06-02T14:47:00.356Z,22.90
2018-06-02T14:49:27.941Z,22.70
2018-06-02T14:51:56.165Z,22.50
2018-06-02T14:54:24.437Z,22.50
2018-06-02T14:56:52.721Z,22.60
2018-06-02T14:59:20.235Z,22.60
2018-06-02T15:01:47.758Z,22.80
2018-06-02T15:04:15.261Z,23.00
2018-06-02T15:06:42.785Z,23.30
2018-06-02T15:09:10.289Z,23.50
2018-06-02T15:11:37.814Z,23.60
2018-06-02T15:14:05.325Z,23.80
2018-06-02T15:16:33.613Z,23.90
2018-06-02T15:19:01.121Z,23.90
2018-06-02T15:21:28.637Z,23.80
2018-06-02T15:23:56.149Z,23.70
2018-06-02T15:26:23.662Z,23.50
2018-06-02T15:28:51.169Z,23.30
2018-06-02T15:31:18.743Z,23.20
2018-06-02T15:33:46.209Z,23.10
2018-06-02T15:36:14.493Z,23.20
2018-06-02T15:38:41.994Z,23.10
2018-06-02T15:41:09.523Z,23.20
2018-06-02T15:43:37.037Z,23.20
2018-06-02T15:46:04.556Z,23.30
2018-06-02T15:48:32.062Z,23.20
2018-06-02T15:51:00.353Z,22.90
2018-06-02T15:53:28.625Z,22.60
2018-06-02T15:55:56.913Z,22.40
2018-06-02T15:58:24.425Z,22.40
2018-06-02T16:00:51.950Z,22.40
2018-06-02T16:03:19.850Z,22.30
2018-06-02T16:05:47.375Z,22.30
2018-06-02T16:08:14.878Z,22.30
2018-06-02T16:10:42.380Z,22.40
2018-06-02T16:13:09.905Z,22.50
2018-06-02T16:15:38.173Z,22.50
2018-06-02T16:18:05.697Z,22.50
2018-06-02T16:20:33.203Z,22.60
2018-06-02T16:23:01.485Z,22.70
2018-06-02T16:25:29.752Z,22.80
2018-06-02T16:27:58.041Z,22.70
2018-06-02T16:30:26.309Z,22.70
2018-06-02T16:32:54.594Z,22.70
2018-06-02T16:35:22.861Z,22.60
2018-06-02T16:37:51.149Z,22.60
2018-06-02T16:40:18.657Z,22.60
2018-06-02T16:42:46.181Z,22.70
2018-06-02T16:45:13.698Z,22.60
2018-06-02T16:47:41.225Z,22.80
2018-06-02T16:50:08.735Z,22.80
2018-06-02T16:52:37.026Z,22.80
2018-06-02T16:55:04.537Z,22.70
2018-06-02T16:57:32.061Z,22.80
2018-06-02T16:59:59.561Z,22.80
2018-06-02T17:02:27.077Z,22.70
2018-06-02T17:04:54.577Z,22.70
2018-06-02T17:07:22.097Z,22.70
2018-06-02T17:09:49.600Z,22.60
2018-06-02T17:12:17.120Z,22.60
2018-06-02T17:14:44.634Z,22.60
2018-06-02T17:17:12.917Z,22.50
2018-06-02T17:19:41.189Z,22.50
2018-06-02T17:22:09.475Z,22.50
2018-06-02T17:24:36.989Z,22.50
2018-06-02T17:27:04.510Z,22.50
2018-06-02T17:29:32.012Z,22.40
2018-06-02T17:31:59.537Z,22.40
2018-06-02T17:34:27.036Z,22.30
2018-06-02T17:36:54.559Z,22.10
2018-06-02T17:39:22.065Z,22.00
2018-06-02T17:41:50.355Z,21.70
2018-06-02T17:44:17.859Z,21.70
2018-06-02T17:46:45.395Z,21.60
2018-06-02T17:49:12.896Z,21.40
2018-06-02T17:51:40.420Z,21.30
2018-06-02T17:54:07.933Z,21.20
2018-06-02T17:56:36.230Z,21.10
2018-06-02T17:59:03.738Z,21.10
2018-06-02T18:01:31.261Z,21.20
2018-06-02T18:03:58.769Z,21.20
2018-06-02T18:06:26.298Z,21.30
2018-06-02T18:08:53.806Z,21.30
2018-06-02T18:11:22.077Z,21.30
2018-06-02T18:13:50.370Z,21.30
2018-06-02T18:16:17.868Z,21.30
2018-06-02T18:18:45.384Z,21.20
2018-06-02T18:21:12.885Z,21.20
2018-06-02T18:23:40.401Z,21.20
2018-06-02T18:26:07.913Z,21.30
2018-06-02T18:28:35.438Z,21.20
2018-06-02T18:31:02.945Z,21.10
2018-06-02T18:33:30.468Z,21.00
2018-06-02T18:35:57.985Z,21.00
2018-06-02T18:38:26.270Z,21.00
2018-06-02T18:40:54.029Z,20.90
2018-06-02T18:43:22.317Z,21.00
2018-06-02T18:45:49.825Z,21.00
2018-06-02T18:48:17.341Z,21.10
2018-06-02T18:50:44.837Z,21.00
2018-06-02T18:53:12.354Z,20.60
2018-06-02T18:55:39.853Z,20.40
2018-06-02T18:58:07.387Z,20.30
2018-06-02T19:00:34.889Z,20.40
2018-06-02T19:03:03.179Z,20.30
2018-06-02T19:05:31.448Z,20.20
2018-06-02T19:07:59.733Z,20.20
2018-06-02T19:10:28.003Z,20.20
2018-06-02T19:12:56.291Z,20.10
2018-06-02T19:15:24.608Z,20.10
2018-06-02T19:17:52.099Z,20.10
2018-06-02T19:20:19.604Z,20.00
2018-06-02T19:22:47.127Z,19.90
2018-06-02T19:25:15.392Z,19.60
2018-06-02T19:27:42.905Z,19.50
2018-06-02T19:30:10.413Z,19.40
2018-06-02T19:32:37.924Z,19.30
2018-06-02T19:35:05.421Z,19.20
2018-06-02T19:37:32.941Z,19.10
2018-06-02T19:40:00.445Z,19.00
2018-06-02T19:42:27.961Z,19.00
2018-06-02T19:44:55.461Z,18.80
2018-06-02T19:47:22.982Z,18.80
2018-06-02T19:49:50.482Z,18.70
2018-06-02T19:52:18.769Z,18.50
2018-06-02T19:54:47.041Z,18.40
2018-06-02T19:57:15.300Z,18.30
2018-06-02T19:59:42.817Z,18.30
2018-06-02T20:02:10.313Z,18.20
2018-06-02T20:04:37.834Z,18.10
2018-06-02T20:07:05.333Z,18.10
2018-06-02T20:09:32.853Z,18.00
2018-06-02T20:12:00.349Z,17.90
2018-06-02T20:14:27.861Z,17.90
2018-06-02T20:16:55.357Z,17.80
2018-06-02T20:19:22.873Z,17.70
2018-06-02T20:21:50.393Z,17.60
2018-06-02T20:24:18.681Z,17.60
2018-06-02T20:26:46.971Z,17.40
2018-06-02T20:29:14.480Z,17.40
2018-06-02T20:31:41.985Z,17.30
2018-06-02T20:34:09.505Z,17.30
2018-06-02T20:36:37.005Z,17.20
2018-06-02T20:39:04.522Z,17.10
2018-06-02T20:41:32.025Z,17.10
2018-06-02T20:43:59.540Z,17.10
2018-06-02T20:46:27.046Z,17.00
2018-06-02T20:48:54.570Z,16.90
2018-06-02T20:51:22.838Z,16.80
2018-06-02T20:53:50.353Z,16.80
2018-06-02T20:56:17.849Z,16.80
2018-06-02T20:58:46.145Z,16.70
2018-06-02T21:01:14.413Z,16.70
2018-06-02T21:03:42.698Z,16.60
2018-06-02T21:06:10.194Z,16.60
2018-06-02T21:08:37.725Z,16.50
2018-06-02T21:11:05.225Z,16.50
2018-06-02T21:13:32.725Z,16.40
2018-06-02T21:16:01.005Z,16.30
2018-06-02T21:18:29.269Z,16.30
2018-06-02T21:20:57.553Z,16.20
2018-06-02T21:23:25.822Z,16.30
2018-06-02T21:25:53.336Z,16.20
2018-06-02T21:28:20.833Z,16.20
2018-06-02T21:30:48.353Z,16.20
2018-06-02T21:33:15.849Z,16.10
2018-06-02T21:35:43.365Z,16.10
2018-06-02T21:38:10.870Z,16.10
2018-06-02T21:40:39.157Z,16.00
2018-06-02T21:43:07.421Z,16.00
2018-06-02T21:45:34.937Z,15.90
2018-06-02T21:48:02.434Z,15.90
2018-06-02T21:50:29.955Z,15.90
2018-06-02T21:52:57.448Z,15.90
2018-06-02T21:55:25.037Z,15.90
2018-06-02T21:57:52.491Z,15.80
2018-06-02T22:00:20.769Z,15.70
2018-06-02T22:02:48.269Z,15.70
2018-06-02T22:05:15.785Z,15.70
2018-06-02T22:07:43.289Z,15.70
2018-06-02T22:10:10.805Z,15.60
2018-06-02T22:12:38.306Z,15.60
2018-06-02T22:15:05.825Z,15.60
2018-06-02T22:17:33.321Z,15.60
2018-06-02T22:20:00.833Z,15.50
2018-06-02T22:22:28.328Z,15.50
2018-06-02T22:24:55.845Z,15.40
2018-06-02T22:27:24.108Z,15.40
2018-06-02T22:29:52.395Z,15.30
2018-06-02T22:32:20.665Z,15.30
2018-06-02T22:34:48.965Z,15.30
2018-06-02T22:37:16.473Z,15.30
2018-06-02T22:39:43.974Z,15.30
2018-06-02T22:42:11.493Z,15.20
2018-06-02T22:44:38.989Z,15.20
2018-06-02T22:47:06.508Z,15.20
2018-06-02T22:49:34.008Z,15.20
2018-06-02T22:52:01.525Z,15.20
2018-06-02T22:54:29.025Z,15.20
2018-06-02T22:56:56.537Z,15.10
2018-06-02T22:59:24.033Z,15.10
2018-06-02T23:01:51.576Z,15.10
2018-06-02T23:04:19.073Z,15.10
2018-06-02T23:06:46.593Z,15.20
2018-06-02T23:09:14.861Z,15.20
2018-06-02T23:11:43.145Z,15.10
2018-06-02T23:14:11.404Z,15.10
2018-06-02T23:16:38.918Z,15.10
2018-06-02T23:19:06.425Z,15.10
2018-06-02T23:21:33.947Z,15.00
2018-06-02T23:24:01.446Z,15.00
2018-06-02T23:26:28.962Z,15.00
2018-06-02T23:28:56.464Z,15.00
2018-06-02T23:31:24.749Z,14.80
2018-06-02T23:33:53.016Z,14.80
2018-06-02T23:36:21.297Z,14.80
2018-06-02T23:38:49.564Z,14.80
2018-06-02T23:41:17.857Z,14.80
2018-06-02T23:43:45.357Z,14.70
